Time;durP1;ratioP1;P1;durP2;ratioP2;P2;SDS_P1;SDS_P2;PMS_P1;PMS_P2;Temp;Humidity;BMP_temperature;BMP_pressure;BME280_temperature;BME280_humidity;BME280_pressure;Samples;Min_cycle;Max_cycle;Signal;HPM_P1;HPM_P2
2021/01/06 00:04:34;;;;;;;15.07;13.20;;;5.40;99.90;;;;;;10497737;28;20201;-79
2021/01/06 00:09:35;;;;;;;15.50;13.90;;;5.40;99.90;;;;;;10492242;28;20231;-79
2021/01/06 00:14:38;;;;;;;17.00;14.40;;;5.40;99.90;;;;;;10493376;28;20219;-80
2021/01/06 00:19:39;;;;;;;15.10;13.60;;;5.40;99.90;;;;;;10492522;28;20303;-80
2021/01/06 00:24:42;;;;;;;16.77;14.10;;;5.40;99.90;;;;;;10498385;28;20219;-79
2021/01/06 00:29:45;;;;;;;15.40;13.80;;;5.40;99.90;;;;;;10528554;28;20219;-79
2021/01/06 00:34:47;;;;;;;15.77;14.13;;;5.40;99.90;;;;;;10518575;28;20288;-79
2021/01/06 00:39:48;;;;;;;15.53;13.80;;;5.40;99.90;;;;;;10495612;28;20239;-79
2021/01/06 00:44:53;;;;;;;16.40;13.97;;;5.40;99.90;;;;;;10507908;28;20338;-79
2021/01/06 00:49:54;;;;;;;14.17;12.47;;;5.40;99.90;;;;;;10451529;28;20304;-79
2021/01/06 00:54:56;;;;;;;15.57;13.93;;;5.30;99.90;;;;;;10453099;28;21146;-79
2021/01/06 00:59:59;;;;;;;16.60;13.90;;;5.30;99.90;;;;;;10494165;28;20266;-79
2021/01/06 01:05:01;;;;;;;16.07;13.37;;;5.30;99.90;;;;;;10515037;28;20671;-80
2021/01/06 01:10:03;;;;;;;16.50;13.80;;;5.30;99.90;;;;;;10533655;28;20259;-79
2021/01/06 01:15:07;;;;;;;14.97;13.47;;;5.30;99.90;;;;;;10535158;28;20255;-80
2021/01/06 01:20:10;;;;;;;15.80;14.10;;;5.20;99.90;;;;;;10544064;28;20245;-80
2021/01/06 01:25:13;;;;;;;14.03;12.47;;;5.20;99.90;;;;;;10516580;28;20193;-81
2021/01/06 01:30:19;;;;;;;15.27;12.83;;;5.10;99.90;;;;;;10492581;28;20212;-79
2021/01/06 01:35:23;;;;;;;16.10;14.20;;;5.10;99.90;;;;;;10487360;28;20228;-80
2021/01/06 01:40:28;;;;;;;15.10;13.10;;;5.20;99.90;;;;;;10488990;28;20240;-79
2021/01/06 01:45:40;;;;;;;13.93;12.13;;;5.20;99.90;;;;;;10469164;28;20201;-78
2021/01/06 01:50:42;;;;;;;15.10;12.00;;;5.10;99.90;;;;;;10468198;28;20220;-78
2021/01/06 01:55:44;;;;;;;14.07;12.57;;;5.10;99.90;;;;;;10485341;28;20665;-78
2021/01/06 02:00:48;;;;;;;15.40;13.07;;;5.10;99.90;;;;;;10482121;28;20216;-78
2021/01/06 02:05:53;;;;;;;14.10;12.60;;;5.10;99.90;;;;;;10483730;28;20192;-77
2021/01/06 02:10:57;;;;;;;15.07;13.40;;;5.10;99.90;;;;;;10489067;28;20297;-78
2021/01/06 02:16:09;;;;;;;14.47;12.87;;;5.10;99.90;;;;;;10487535;28;20316;-78
2021/01/06 02:21:15;;;;;;;16.47;13.20;;;5.20;99.90;;;;;;10483427;28;20250;-78
2021/01/06 02:26:17;;;;;;;14.50;12.00;;;5.20;99.90;;;;;;10475383;28;20202;-78
2021/01/06 02:31:19;;;;;;;15.17;12.33;;;5.20;99.90;;;;;;10492581;28;20291;-78
2021/01/06 02:36:23;;;;;;;14.43;12.73;;;5.20;99.90;;;;;;10493408;28;20267;-78
2021/01/06 02:41:25;;;;;;;14.50;12.80;;;5.10;99.90;;;;;;10492560;28;20668;-78
2021/01/06 02:46:26;;;;;;;12.80;11.50;;;5.10;99.90;;;;;;10491073;28;20214;-78
2021/01/06 02:51:38;;;;;;;13.67;11.67;;;5.10;99.90;;;;;;10492541;28;20204;-78
2021/01/06 02:56:42;;;;;;;15.13;11.83;;;5.10;99.90;;;;;;10493054;28;20254;-78
2021/01/06 03:01:47;;;;;;;14.33;12.80;;;5.00;99.90;;;;;;10499742;28;20192;-77
2021/01/06 03:06:54;;;;;;;12.13;10.97;;;4.90;99.90;;;;;;10497331;28;20216;-78
2021/01/06 03:11:57;;;;;;;13.60;11.90;;;4.90;99.90;;;;;;10491316;28;20204;-78
2021/01/06 03:17:01;;;;;;;13.93;12.53;;;4.80;99.90;;;;;;10492289;28;20298;-78
2021/01/06 03:22:06;;;;;;;13.07;11.43;;;4.70;99.90;;;;;;10491832;28;20188;-78
2021/01/06 03:27:09;;;;;;;13.80;12.30;;;4.70;99.90;;;;;;10490759;28;20243;-78
2021/01/06 03:32:20;;;;;;;13.10;11.80;;;4.60;99.90;;;;;;10474905;28;20573;-78
2021/01/06 03:37:27;;;;;;;14.00;12.60;;;4.50;99.90;;;;;;10467761;28;20668;-78
2021/01/06 03:42:29;;;;;;;13.47;11.73;;;4.40;99.90;;;;;;10469002;28;20592;-78
2021/01/06 03:47:34;;;;;;;14.17;12.73;;;4.40;99.90;;;;;;10470290;28;20241;-77
2021/01/06 03:53:18;;;;;;;13.30;11.70;;;4.40;99.90;;;;;;10470667;28;20213;-78
2021/01/06 03:58:30;;;;;;;13.90;12.50;;;4.30;99.90;;;;;;10477549;28;20242;-78
2021/01/06 04:03:45;;;;;;;13.70;11.90;;;4.30;99.90;;;;;;10498240;28;20189;-78
2021/01/06 04:08:50;;;;;;;15.50;13.37;;;4.30;99.90;;;;;;10498506;28;20303;-78
2021/01/06 04:13:52;;;;;;;15.10;13.43;;;4.30;99.90;;;;;;10497851;28;20225;-78
2021/01/06 04:18:54;;;;;;;14.57;13.20;;;4.30;99.90;;;;;;10499375;28;20295;-78
2021/01/06 04:23:56;;;;;;;13.77;12.37;;;4.30;99.90;;;;;;10502251;28;20196;-78
2021/01/06 04:28:58;;;;;;;13.73;12.20;;;4.30;99.90;;;;;;10498871;28;20684;-78
2021/01/06 04:34:00;;;;;;;14.70;13.20;;;4.20;99.90;;;;;;10479747;28;20288;-78
2021/01/06 04:39:05;;;;;;;15.97;14.20;;;4.20;99.90;;;;;;10532554;22;20223;-80
2021/01/06 04:44:22;;;;;;;13.80;12.40;;;4.20;99.90;;;;;;10540310;28;20330;-80
2021/01/06 04:49:32;;;;;;;15.00;13.43;;;4.20;99.90;;;;;;10541667;28;20699;-80
2021/01/06 04:54:57;;;;;;;16.70;14.90;;;4.20;99.90;;;;;;10539671;28;20228;-80
2021/01/06 05:00:27;;;;;;;15.53;13.90;;;4.20;99.90;;;;;;10539589;28;20223;-80
2021/01/06 05:05:52;;;;;;;16.00;14.03;;;4.30;99.90;;;;;;10539727;28;20210;-82
2021/01/06 05:11:02;;;;;;;16.40;13.97;;;4.20;99.90;;;;;;10509752;28;20309;-83
2021/01/06 05:16:08;;;;;;;17.23;13.23;;;4.20;99.90;;;;;;10522752;28;20624;-81
2021/01/06 05:21:13;;;;;;;15.37;13.77;;;4.20;99.90;;;;;;10542883;28;20304;-80
2021/01/06 05:26:17;;;;;;;15.20;13.23;;;4.20;99.90;;;;;;10521636;28;20212;-80
2021/01/06 05:31:19;;;;;;;14.93;13.43;;;4.20;99.90;;;;;;10495739;28;20638;-82
2021/01/06 05:36:26;;;;;;;15.67;14.07;;;4.30;99.90;;;;;;10479810;28;20576;-80
2021/01/06 05:41:28;;;;;;;14.37;12.40;;;4.30;99.90;;;;;;10497753;28;20220;-80
2021/01/06 05:46:32;;;;;;;14.70;12.57;;;4.30;99.90;;;;;;10497592;28;20212;-81
2021/01/06 05:51:35;;;;;;;15.23;13.30;;;4.30;99.90;;;;;;10513604;28;20645;-81
2021/01/06 05:56:57;;;;;;;12.03;10.83;;;4.30;99.90;;;;;;10515308;28;20214;-81
2021/01/06 06:02:06;;;;;;;12.07;10.77;;;4.30;99.90;;;;;;10538599;28;20195;-80
2021/01/06 06:07:34;;;;;;;12.30;10.87;;;4.30;99.90;;;;;;10539202;28;20235;-81
2021/01/06 06:12:47;;;;;;;10.80;9.70;;;4.30;99.90;;;;;;10502565;28;20243;-81
2021/01/06 06:18:09;;;;;;;12.73;11.43;;;4.30;99.90;;;;;;10541879;28;20334;-82
2021/01/06 06:23:28;;;;;;;11.67;9.90;;;4.30;99.90;;;;;;10522878;28;20274;-80
2021/01/06 06:28:36;;;;;;;11.67;10.50;;;4.40;99.90;;;;;;10540729;28;20307;-81
2021/01/06 06:33:38;;;;;;;10.93;9.83;;;4.40;99.90;;;;;;10477643;28;20233;-81
2021/01/06 06:38:42;;;;;;;10.63;9.63;;;4.40;99.90;;;;;;10494423;28;20220;-81
2021/01/06 06:43:47;;;;;;;11.47;9.60;;;4.40;99.90;;;;;;10495217;28;20188;-81
2021/01/06 06:49:11;;;;;;;8.70;7.80;;;4.40;99.90;;;;;;10478218;28;20312;-81
2021/01/06 06:54:22;;;;;;;9.77;8.83;;;4.30;99.90;;;;;;10489742;28;20220;-81
2021/01/06 06:59:30;;;;;;;10.80;9.80;;;4.30;99.90;;;;;;10494437;28;20231;-80
2021/01/06 07:04:38;;;;;;;10.77;8.93;;;4.30;99.90;;;;;;10495086;28;20184;-80
2021/01/06 07:09:39;;;;;;;9.73;8.83;;;4.40;99.90;;;;;;10478111;28;20243;-80
2021/01/06 07:14:52;;;;;;;9.40;8.50;;;4.40;99.90;;;;;;10493626;28;20224;-82
2021/01/06 07:19:57;;;;;;;10.30;9.07;;;4.40;99.90;;;;;;10495198;28;20286;-81
2021/01/06 07:25:06;;;;;;;9.63;8.73;;;4.40;99.90;;;;;;10502568;28;20281;-80
2021/01/06 07:30:11;;;;;;;10.13;9.20;;;4.40;99.90;;;;;;10548810;28;20250;-81
2021/01/06 07:35:22;;;;;;;9.70;8.80;;;4.40;99.90;;;;;;10540595;28;20247;-81
2021/01/06 07:40:27;;;;;;;9.47;8.67;;;4.50;99.90;;;;;;10554413;28;20216;-81
2021/01/06 07:45:41;;;;;;;9.63;8.60;;;4.50;99.90;;;;;;10543447;28;20785;-81
2021/01/06 07:50:51;;;;;;;9.43;8.53;;;4.50;99.90;;;;;;10543614;28;20220;-81
2021/01/06 07:55:58;;;;;;;8.90;8.10;;;4.50;99.90;;;;;;10544309;28;20585;-81
2021/01/06 08:01:05;;;;;;;9.50;8.63;;;4.60;99.90;;;;;;10546629;28;20738;-81
2021/01/06 08:06:07;;;;;;;10.37;9.27;;;4.60;99.90;;;;;;10493974;28;20188;-81
2021/01/06 08:11:13;;;;;;;9.40;8.53;;;4.60;99.90;;;;;;10510389;28;20281;-81
2021/01/06 08:16:22;;;;;;;9.70;8.70;;;4.60;99.90;;;;;;10505671;28;20208;-81
2021/01/06 08:21:28;;;;;;;9.13;8.30;;;4.60;99.90;;;;;;10533247;28;20215;-82
2021/01/06 08:26:32;;;;;;;10.97;9.97;;;4.70;99.90;;;;;;10500065;28;20282;-83
2021/01/06 08:31:36;;;;;;;10.00;9.10;;;4.70;99.90;;;;;;10525646;28;20290;-82
2021/01/06 08:36:39;;;;;;;9.77;8.87;;;4.60;99.90;;;;;;10526392;28;20244;-82
2021/01/06 08:41:41;;;;;;;9.40;8.60;;;4.60;99.90;;;;;;10502306;28;20197;-82
2021/01/06 08:46:55;;;;;;;9.23;8.43;;;4.60;99.90;;;;;;10502951;28;20203;-83
2021/01/06 08:52:13;;;;;;;7.90;7.13;;;4.50;99.90;;;;;;10502227;28;20216;-81
2021/01/06 08:57:22;;;;;;;9.93;9.00;;;4.50;99.90;;;;;;10504083;28;20214;-81
2021/01/06 09:02:34;;;;;;;10.30;9.30;;;4.40;99.90;;;;;;10524442;28;20187;-81
2021/01/06 09:07:35;;;;;;;8.90;8.10;;;4.40;99.90;;;;;;10528269;28;20313;-81
2021/01/06 09:13:03;;;;;;;9.60;8.80;;;4.40;99.90;;;;;;10519086;28;20204;-81
2021/01/06 09:18:14;;;;;;;8.97;8.17;;;4.40;99.90;;;;;;10519742;28;20212;-81
2021/01/06 09:23:19;;;;;;;9.40;8.50;;;4.30;99.90;;;;;;10517339;28;20198;-80
2021/01/06 09:28:21;;;;;;;9.90;9.00;;;4.30;99.90;;;;;;10509066;28;20307;-81
2021/01/06 09:33:29;;;;;;;8.90;8.20;;;4.30;99.90;;;;;;10525608;28;20216;-81
2021/01/06 09:38:35;;;;;;;8.57;7.87;;;4.30;99.90;;;;;;10520777;28;20224;-81
2021/01/06 09:43:39;;;;;;;9.13;8.37;;;4.30;99.90;;;;;;10530064;28;20214;-81
2021/01/06 09:48:45;;;;;;;9.30;8.40;;;4.30;99.90;;;;;;10499230;28;20269;-81
2021/01/06 09:53:51;;;;;;;9.00;8.20;;;4.30;99.90;;;;;;10535500;28;20223;-80
2021/01/06 09:58:54;;;;;;;9.90;8.87;;;4.20;99.90;;;;;;10536649;28;20226;-81
2021/01/06 10:04:03;;;;;;;9.80;8.77;;;4.20;99.90;;;;;;10521748;28;20227;-82
2021/01/06 10:09:15;;;;;;;9.87;9.07;;;4.20;99.90;;;;;;10539161;28;20300;-82
2021/01/06 10:14:59;;;;;;;10.00;9.20;;;4.20;99.90;;;;;;10539945;28;20259;-81
2021/01/06 10:20:12;;;;;;;10.97;10.00;;;4.20;99.90;;;;;;10514207;28;20306;-81
2021/01/06 10:25:24;;;;;;;11.20;10.20;;;4.20;99.90;;;;;;10563514;28;20187;-81
2021/01/06 10:30:30;;;;;;;11.07;10.10;;;4.20;99.90;;;;;;10516020;28;20223;-82
2021/01/06 10:35:45;;;;;;;11.67;10.57;;;4.20;99.90;;;;;;10552342;28;20649;-80
2021/01/06 10:40:47;;;;;;;11.80;10.80;;;4.20;99.90;;;;;;10517643;22;20230;-78
2021/01/06 10:45:49;;;;;;;12.90;11.80;;;4.20;99.90;;;;;;10478316;28;20194;-77
2021/01/06 10:50:51;;;;;;;11.83;10.73;;;4.10;99.90;;;;;;10489249;28;20748;-77
2021/01/06 10:56:06;;;;;;;13.07;11.90;;;4.10;99.90;;;;;;10492376;28;20259;-77
2021/01/06 11:01:44;;;;;;;13.63;12.40;;;4.10;99.90;;;;;;10490869;28;20339;-77
2021/01/06 11:06:56;;;;;;;13.53;12.20;;;4.10;99.90;;;;;;10494459;28;20227;-77
2021/01/06 11:12:34;;;;;;;12.60;11.47;;;4.10;99.90;;;;;;10492818;28;20258;-78
2021/01/06 11:17:37;;;;;;;14.23;12.83;;;4.10;99.90;;;;;;10494717;28;20242;-77
2021/01/06 11:22:43;;;;;;;12.63;11.53;;;4.10;99.90;;;;;;10493380;28;20201;-77
2021/01/06 11:27:47;;;;;;;13.10;11.90;;;4.10;99.90;;;;;;10500690;28;20228;-77
2021/01/06 11:33:08;;;;;;;13.20;12.10;;;4.10;99.90;;;;;;10488182;28;20226;-77
2021/01/06 11:38:47;;;;;;;13.93;12.60;;;4.10;99.90;;;;;;10488992;28;20239;-77
2021/01/06 11:43:56;;;;;;;15.57;14.17;;;4.10;99.90;;;;;;10487489;28;20193;-77
2021/01/06 11:49:14;;;;;;;13.10;12.00;;;4.10;99.90;;;;;;10490415;28;20216;-77
2021/01/06 11:54:24;;;;;;;13.87;12.67;;;4.10;99.90;;;;;;10485941;28;20346;-77
2021/01/06 11:59:32;;;;;;;14.63;13.23;;;4.10;99.90;;;;;;10490523;28;20208;-77
2021/01/06 12:05:01;;;;;;;14.37;13.07;;;4.10;99.90;;;;;;10488309;28;20224;-77
2021/01/06 12:10:24;;;;;;;14.87;13.47;;;4.10;99.90;;;;;;10484040;28;20220;-77
2021/01/06 12:15:46;;;;;;;16.57;15.17;;;4.10;99.90;;;;;;10484421;28;20307;-77
2021/01/06 12:20:49;;;;;;;16.60;15.00;;;4.20;99.90;;;;;;10480456;28;20265;-77
2021/01/06 12:25:54;;;;;;;14.77;13.37;;;4.20;99.90;;;;;;10505701;28;20216;-77
2021/01/06 12:31:13;;;;;;;15.50;14.10;;;4.20;99.90;;;;;;10502120;28;20247;-77
2021/01/06 12:36:30;;;;;;;15.00;13.67;;;4.20;99.90;;;;;;10502798;28;20335;-78
2021/01/06 12:41:48;;;;;;;13.80;12.60;;;4.10;99.90;;;;;;10502285;28;20350;-77
2021/01/06 12:46:56;;;;;;;15.07;13.67;;;4.20;99.90;;;;;;10500414;28;20193;-78
2021/01/06 12:52:16;;;;;;;14.30;13.03;;;4.10;99.90;;;;;;10500048;28;20212;-77
2021/01/06 12:57:23;;;;;;;14.17;12.97;;;4.10;99.90;;;;;;10493838;28;20222;-78
2021/01/06 13:02:31;;;;;;;12.83;11.73;;;4.10;99.90;;;;;;10494966;28;20201;-78
2021/01/06 13:07:34;;;;;;;12.97;11.83;;;4.20;99.90;;;;;;10497001;28;20259;-78
2021/01/06 13:12:47;;;;;;;13.43;12.33;;;4.20;99.90;;;;;;10497920;28;20224;-77
2021/01/06 13:18:01;;;;;;;12.90;11.80;;;4.20;99.90;;;;;;10499006;28;20221;-78
2021/01/06 13:23:24;;;;;;;12.77;11.67;;;4.20;99.90;;;;;;10488888;28;20208;-78
2021/01/06 13:28:33;;;;;;;11.10;10.20;;;4.20;99.90;;;;;;10493492;28;20224;-78
2021/01/06 13:33:46;;;;;;;12.60;11.60;;;4.10;99.90;;;;;;10496331;28;20585;-78
2021/01/06 13:39:02;;;;;;;12.20;11.10;;;4.10;99.90;;;;;;10485314;28;20224;-78
2021/01/06 13:44:21;;;;;;;10.70;9.90;;;4.10;99.90;;;;;;10492527;28;20234;-78
2021/01/06 13:49:40;;;;;;;11.37;10.43;;;4.10;99.90;;;;;;10490749;28;20212;-78
2021/01/06 13:55:04;;;;;;;11.43;10.23;;;4.10;99.90;;;;;;10486064;28;20280;-78
2021/01/06 14:00:12;;;;;;;11.27;10.40;;;4.10;99.90;;;;;;10494149;28;20738;-78
2021/01/06 14:05:27;;;;;;;12.70;11.70;;;4.10;99.90;;;;;;10489524;28;20207;-78
2021/01/06 14:10:39;;;;;;;11.43;10.53;;;4.10;99.90;;;;;;10485989;28;20278;-78
2021/01/06 14:15:58;;;;;;;10.93;10.03;;;4.10;99.90;;;;;;10459355;28;20224;-78
2021/01/06 14:21:16;;;;;;;11.23;10.33;;;4.10;99.90;;;;;;10481438;28;20220;-78
2021/01/06 14:26:36;;;;;;;11.50;10.60;;;4.10;99.90;;;;;;10469414;28;20577;-78
2021/01/06 14:31:43;;;;;;;9.67;8.97;;;4.10;99.90;;;;;;10478557;28;20307;-78
2021/01/06 14:36:48;;;;;;;10.23;9.43;;;4.00;99.90;;;;;;10460252;28;20382;-78
2021/01/06 14:41:59;;;;;;;10.20;9.40;;;4.00;99.90;;;;;;10477384;28;20208;-78
2021/01/06 14:47:31;;;;;;;10.13;9.33;;;4.00;99.90;;;;;;10481077;28;20583;-78
2021/01/06 14:52:35;;;;;;;9.77;8.97;;;4.00;99.90;;;;;;10474018;28;20780;-78
2021/01/06 14:57:47;;;;;;;9.97;9.10;;;4.00;99.90;;;;;;10480577;28;20231;-78
2021/01/06 15:03:17;;;;;;;10.20;9.40;;;4.00;99.90;;;;;;10475129;28;20199;-78
2021/01/06 15:08:23;;;;;;;9.10;8.40;;;4.00;99.90;;;;;;10445362;28;20226;-78
2021/01/06 15:13:25;;;;;;;9.90;9.10;;;4.00;99.90;;;;;;10481330;28;20227;-79
2021/01/06 15:18:29;;;;;;;9.50;8.80;;;3.90;99.90;;;;;;10473142;28;20906;-78
2021/01/06 15:23:35;;;;;;;9.97;9.20;;;3.90;99.90;;;;;;10464994;28;20247;-78
2021/01/06 15:28:44;;;;;;;11.23;10.30;;;3.90;99.90;;;;;;10481623;28;20310;-78
2021/01/06 15:33:56;;;;;;;10.00;9.23;;;3.90;99.90;;;;;;10481847;28;20212;-78
2021/01/06 15:39:05;;;;;;;10.27;9.47;;;3.90;99.90;;;;;;10483016;28;20307;-78
2021/01/06 15:44:12;;;;;;;10.73;9.73;;;3.90;99.90;;;;;;10486574;28;20664;-78
2021/01/06 15:49:17;;;;;;;10.60;9.80;;;3.90;99.90;;;;;;10482994;28;20312;-78
2021/01/06 15:54:22;;;;;;;10.90;10.00;;;4.00;99.90;;;;;;10466670;28;20406;-78
2021/01/06 15:59:26;;;;;;;10.00;9.30;;;3.90;99.90;;;;;;10484289;28;20939;-78
2021/01/06 16:04:37;;;;;;;11.27;10.27;;;3.90;99.90;;;;;;10470824;28;20200;-78
2021/01/06 16:09:39;;;;;;;10.67;9.87;;;3.90;99.90;;;;;;10486823;28;20273;-78
2021/01/06 16:14:45;;;;;;;10.67;9.87;;;3.90;99.90;;;;;;10476678;28;20224;-78
2021/01/06 16:19:51;;;;;;;11.07;10.23;;;3.90;99.90;;;;;;10481750;28;20699;-77
2021/01/06 16:24:53;;;;;;;12.27;11.17;;;3.90;99.90;;;;;;10490258;28;20597;-77
2021/01/06 16:30:04;;;;;;;12.00;11.00;;;3.90;99.90;;;;;;10489035;28;20277;-77
2021/01/06 16:35:16;;;;;;;10.87;9.97;;;3.90;99.90;;;;;;10463303;28;20671;-77
2021/01/06 16:40:23;;;;;;;10.83;9.93;;;3.90;99.90;;;;;;10508025;22;20541;-78
2021/01/06 16:45:26;;;;;;;12.10;11.10;;;4.00;99.90;;;;;;10469165;28;20201;-78
2021/01/06 16:50:32;;;;;;;10.83;9.93;;;4.00;99.90;;;;;;10488119;28;20224;-78
2021/01/06 16:55:36;;;;;;;10.60;9.77;;;4.00;99.90;;;;;;10494223;28;20224;-78
2021/01/06 17:00:41;;;;;;;10.87;9.97;;;4.00;99.90;;;;;;10499666;28;20231;-79
2021/01/06 17:05:49;;;;;;;11.03;10.10;;;4.00;99.90;;;;;;10503891;28;20215;-80
2021/01/06 17:10:51;;;;;;;10.70;9.80;;;4.00;99.90;;;;;;10497274;28;20212;-79
2021/01/06 17:15:57;;;;;;;11.13;10.23;;;4.00;99.90;;;;;;10497383;28;20326;-79
2021/01/06 17:21:03;;;;;;;13.23;11.93;;;4.00;99.90;;;;;;10495769;28;20704;-78
2021/01/06 17:26:07;;;;;;;14.20;12.90;;;4.00;99.90;;;;;;10496104;28;20292;-79
2021/01/06 17:31:17;;;;;;;13.57;12.17;;;4.00;99.90;;;;;;10496711;28;20311;-79
2021/01/06 17:36:19;;;;;;;10.50;9.70;;;4.00;99.90;;;;;;10488091;28;20324;-79
2021/01/06 17:41:34;;;;;;;11.77;10.70;;;4.00;99.90;;;;;;10486584;28;20307;-79
2021/01/06 17:46:38;;;;;;;11.33;10.43;;;4.00;99.90;;;;;;10458433;28;20196;-79
2021/01/06 17:51:40;;;;;;;11.40;10.50;;;4.10;99.90;;;;;;10484996;28;20220;-79
2021/01/06 17:56:43;;;;;;;11.23;10.23;;;4.10;99.90;;;;;;10475372;28;20278;-79
2021/01/06 18:01:47;;;;;;;13.37;12.17;;;4.20;99.90;;;;;;10464269;28;20240;-79
2021/01/06 18:07:02;;;;;;;12.30;11.30;;;4.20;99.90;;;;;;10480643;28;20294;-79
2021/01/06 18:12:09;;;;;;;11.97;10.97;;;4.20;99.90;;;;;;10483037;28;20219;-79
2021/01/06 18:17:11;;;;;;;11.70;10.70;;;4.10;99.90;;;;;;10480625;28;20219;-79
2021/01/06 18:22:13;;;;;;;11.83;10.77;;;4.20;99.90;;;;;;10482488;28;20252;-79
2021/01/06 18:27:16;;;;;;;13.33;12.13;;;4.20;99.90;;;;;;10479530;28;20684;-79
2021/01/06 18:32:20;;;;;;;12.30;11.30;;;4.20;99.90;;;;;;10480642;28;20204;-79
2021/01/06 18:37:24;;;;;;;12.67;11.57;;;4.30;99.90;;;;;;10463483;28;20645;-79
2021/01/06 18:42:28;;;;;;;13.50;12.30;;;4.30;99.90;;;;;;10473316;28;20624;-79
2021/01/06 18:47:30;;;;;;;14.13;12.83;;;4.30;99.90;;;;;;10483704;28;20202;-79
2021/01/06 18:52:31;;;;;;;12.30;11.20;;;4.30;99.90;;;;;;10479243;28;20211;-79
2021/01/06 18:57:39;;;;;;;11.17;10.27;;;4.30;99.90;;;;;;10480366;28;21050;-79
2021/01/06 19:02:45;;;;;;;10.97;9.97;;;4.20;99.90;;;;;;10477740;28;20193;-79
2021/01/06 19:07:57;;;;;;;11.33;10.43;;;4.20;99.90;;;;;;10478294;28;20216;-79
2021/01/06 19:13:02;;;;;;;12.17;11.07;;;4.10;99.90;;;;;;10477648;28;20219;-79
2021/01/06 19:18:04;;;;;;;9.10;8.40;;;4.10;99.90;;;;;;10480367;28;20226;-79
2021/01/06 19:23:07;;;;;;;9.60;8.80;;;4.00;99.90;;;;;;10479884;28;20258;-79
2021/01/06 19:28:10;;;;;;;9.63;8.93;;;4.00;99.90;;;;;;10480032;28;20695;-79
2021/01/06 19:33:14;;;;;;;8.37;7.67;;;4.00;99.90;;;;;;10489452;28;20628;-79
2021/01/06 19:38:17;;;;;;;9.20;8.50;;;4.00;99.90;;;;;;10487334;28;20228;-79
2021/01/06 19:43:20;;;;;;;9.50;8.70;;;3.90;99.90;;;;;;10488495;28;20723;-79
2021/01/06 19:48:25;;;;;;;9.40;8.63;;;3.90;99.90;;;;;;10488446;28;20243;-79
2021/01/06 19:53:33;;;;;;;9.33;8.63;;;3.90;99.90;;;;;;10487012;28;20223;-79
2021/01/06 19:58:37;;;;;;;7.57;7.03;;;4.00;99.90;;;;;;10482668;28;20636;-79
2021/01/06 20:03:39;;;;;;;9.07;8.37;;;4.00;99.90;;;;;;10487548;28;20203;-79
2021/01/06 20:08:45;;;;;;;10.10;9.27;;;4.00;99.90;;;;;;10488736;28;20224;-79
2021/01/06 20:13:52;;;;;;;9.43;8.63;;;4.00;99.90;;;;;;10491663;28;20311;-79
2021/01/06 20:18:54;;;;;;;10.07;9.23;;;4.10;99.90;;;;;;10487998;28;20216;-79
2021/01/06 20:23:56;;;;;;;10.43;9.60;;;4.10;99.90;;;;;;10468556;28;20696;-79
2021/01/06 20:28:59;;;;;;;10.83;9.93;;;4.10;99.90;;;;;;10484772;28;20250;-79
2021/01/06 20:34:00;;;;;;;11.50;10.60;;;4.10;99.90;;;;;;10487216;28;20216;-79
2021/01/06 20:39:03;;;;;;;9.90;9.17;;;4.20;99.90;;;;;;10489221;28;20699;-79
2021/01/06 20:44:07;;;;;;;10.60;9.77;;;4.20;99.90;;;;;;10483547;28;20201;-79
2021/01/06 20:49:09;;;;;;;10.53;9.63;;;4.20;99.90;;;;;;10485195;28;20299;-78
2021/01/06 20:54:10;;;;;;;9.33;8.53;;;4.20;99.90;;;;;;10467379;28;20307;-79
2021/01/06 20:59:13;;;;;;;10.40;9.50;;;4.10;99.90;;;;;;10483890;28;20295;-79
2021/01/06 21:04:15;;;;;;;10.20;9.40;;;4.10;99.90;;;;;;10483413;28;20505;-79
2021/01/06 21:09:16;;;;;;;9.50;8.80;;;4.10;99.90;;;;;;10483135;28;20247;-79
2021/01/06 21:14:19;;;;;;;10.43;9.63;;;4.10;99.90;;;;;;10466397;28;20636;-79
2021/01/06 21:19:20;;;;;;;11.93;11.00;;;4.10;99.90;;;;;;10465580;28;20854;-79
2021/01/06 21:24:24;;;;;;;11.50;10.60;;;4.10;99.90;;;;;;10483418;28;20298;-79
2021/01/06 21:29:26;;;;;;;11.37;10.50;;;4.20;99.90;;;;;;10481285;28;20700;-79
2021/01/06 21:34:28;;;;;;;18.97;15.57;;;4.20;99.90;;;;;;10482879;28;20231;-79
2021/01/06 21:39:30;;;;;;;9.80;9.10;;;4.20;99.90;;;;;;10485039;28;20239;-79
2021/01/06 21:44:32;;;;;;;10.13;9.33;;;4.30;99.90;;;;;;10482562;28;20195;-79
2021/01/06 21:49:34;;;;;;;9.63;8.93;;;4.30;99.90;;;;;;10477887;28;20251;-79
2021/01/06 21:54:36;;;;;;;9.30;8.60;;;4.30;99.90;;;;;;10481860;28;20220;-79
2021/01/06 21:59:38;;;;;;;9.57;8.83;;;4.30;99.90;;;;;;10480109;28;20239;-79
2021/01/06 22:04:40;;;;;;;9.80;9.10;;;4.30;99.90;;;;;;10486652;28;20201;-79
2021/01/06 22:09:42;;;;;;;8.73;8.03;;;4.30;99.90;;;;;;10482784;28;20215;-79
2021/01/06 22:14:44;;;;;;;8.80;8.20;;;4.30;99.90;;;;;;10486693;28;20218;-79
2021/01/06 22:19:46;;;;;;;9.53;8.80;;;4.40;99.90;;;;;;10469055;28;20224;-79
2021/01/06 22:24:47;;;;;;;8.93;8.13;;;4.40;99.90;;;;;;10484228;28;20908;-79
2021/01/06 22:29:50;;;;;;;8.40;7.70;;;4.40;99.90;;;;;;10484020;28;20228;-79
2021/01/06 22:34:51;;;;;;;8.10;7.40;;;4.40;99.90;;;;;;10484297;28;20224;-79
2021/01/06 22:39:53;;;;;;;8.67;8.03;;;4.30;99.90;;;;;;10486503;28;20224;-79
2021/01/06 22:44:55;;;;;;;7.47;6.97;;;4.40;99.90;;;;;;10474853;28;20196;-79
2021/01/06 22:49:58;;;;;;;9.33;8.53;;;4.40;99.90;;;;;;10479293;28;20216;-79
2021/01/06 22:55:00;;;;;;;9.10;8.40;;;4.40;99.90;;;;;;10482818;28;20607;-79
2021/01/06 23:00:09;;;;;;;9.63;8.83;;;4.40;99.90;;;;;;10482755;28;20216;-79
2021/01/06 23:05:11;;;;;;;9.47;8.67;;;4.40;99.90;;;;;;10484639;28;20245;-79
2021/01/06 23:10:14;;;;;;;9.23;8.53;;;4.40;99.90;;;;;;10483285;28;20294;-79
2021/01/06 23:15:19;;;;;;;10.13;9.33;;;4.40;99.90;;;;;;10483342;28;20213;-79
2021/01/06 23:20:20;;;;;;;10.20;9.40;;;4.40;99.90;;;;;;10483501;28;20216;-79
2021/01/06 23:25:22;;;;;;;9.57;8.77;;;4.40;99.90;;;;;;10465873;28;20258;-79
2021/01/06 23:30:25;;;;;;;8.83;8.13;;;4.40;99.90;;;;;;10485043;28;20624;-79
2021/01/06 23:35:26;;;;;;;9.30;8.60;;;4.40;99.90;;;;;;10482706;28;20230;-79
2021/01/06 23:40:28;;;;;;;8.80;8.10;;;4.40;99.90;;;;;;10486468;28;20607;-79
2021/01/06 23:45:30;;;;;;;9.33;8.63;;;4.40;99.90;;;;;;10482898;28;20200;-79
2021/01/06 23:50:32;;;;;;;8.77;7.97;;;4.40;99.90;;;;;;10482364;28;20228;-79
2021/01/06 23:55:34;;;;;;;9.37;8.67;;;4.40;99.90;;;;;;10464906;28;20223;-79
